sensor_id;sensor_type;location;lat;lon;timestamp;pressure;altitude;pressure_sealevel;temperature;humidity
68476;BME280;55464;48.266;14.188;2023-05-23T00:01:30;97292.03;;;18.21;63.83
68476;BME280;55464;48.266;14.188;2023-05-23T00:03:56;97303.59;;;18.23;63.57
68476;BME280;55464;48.266;14.188;2023-05-23T00:06:22;97305.56;;;18.23;63.46
68476;BME280;55464;48.266;14.188;2023-05-23T00:08:47;97291.28;;;18.13;62.86
68476;BME280;55464;48.266;14.188;2023-05-23T00:11:13;97307.16;;;18.24;62.85
68476;BME280;55464;48.266;14.188;2023-05-23T00:13:39;97305.16;;;18.24;62.60
68476;BME280;55464;48.266;14.188;2023-05-23T00:16:05;97300.34;;;18.32;61.84
68476;BME280;55464;48.266;14.188;2023-05-23T00:18:34;97308.69;;;18.39;61.81
68476;BME280;55464;48.266;14.188;2023-05-23T00:21:00;97304.66;;;18.40;61.76
68476;BME280;55464;48.266;14.188;2023-05-23T00:23:26;97309.84;;;18.42;62.84
68476;BME280;55464;48.266;14.188;2023-05-23T00:25:54;97313.47;;;18.35;63.44
68476;BME280;55464;48.266;14.188;2023-05-23T00:28:21;97309.97;;;18.20;63.58
68476;BME280;55464;48.266;14.188;2023-05-23T00:30:47;97310.41;;;18.11;63.88
68476;BME280;55464;48.266;14.188;2023-05-23T00:33:16;97316.44;;;18.03;64.40
68476;BME280;55464;48.266;14.188;2023-05-23T00:35:41;97298.97;;;17.88;64.79
68476;BME280;55464;48.266;14.188;2023-05-23T00:38:07;97314.13;;;17.87;64.74
68476;BME280;55464;48.266;14.188;2023-05-23T00:40:33;97310.53;;;17.75;65.02
68476;BME280;55464;48.266;14.188;2023-05-23T00:42:59;97307.75;;;17.75;65.08
68476;BME280;55464;48.266;14.188;2023-05-23T00:45:25;97324.50;;;17.68;65.22
68476;BME280;55464;48.266;14.188;2023-05-23T00:47:51;97315.78;;;17.59;65.14
68476;BME280;55464;48.266;14.188;2023-05-23T00:50:17;97321.75;;;17.61;65.41
68476;BME280;55464;48.266;14.188;2023-05-23T00:52:44;97322.09;;;17.70;65.17
68476;BME280;55464;48.266;14.188;2023-05-23T00:55:10;97330.44;;;17.77;64.48
68476;BME280;55464;48.266;14.188;2023-05-23T00:57:36;97326.06;;;17.80;64.58
68476;BME280;55464;48.266;14.188;2023-05-23T01:00:10;97309.38;;;17.73;64.80
68476;BME280;55464;48.266;14.188;2023-05-23T01:02:42;97314.53;;;17.74;65.28
68476;BME280;55464;48.266;14.188;2023-05-23T01:05:14;97317.31;;;17.74;65.28
68476;BME280;55464;48.266;14.188;2023-05-23T01:07:45;97318.94;;;17.68;65.56
68476;BME280;55464;48.266;14.188;2023-05-23T01:10:14;97320.53;;;17.66;65.41
68476;BME280;55464;48.266;14.188;2023-05-23T01:15:14;97312.22;;;17.58;65.81
68476;BME280;55464;48.266;14.188;2023-05-23T01:18:08;97322.94;;;17.56;65.77
68476;BME280;55464;48.266;14.188;2023-05-23T01:20:40;97328.50;;;17.64;65.61
68476;BME280;55464;48.266;14.188;2023-05-23T01:28:38;97337.28;;;17.58;65.78
68476;BME280;55464;48.266;14.188;2023-05-23T01:31:07;97334.09;;;17.56;65.96
68476;BME280;55464;48.266;14.188;2023-05-23T01:33:35;97330.13;;;17.54;66.20
68476;BME280;55464;48.266;14.188;2023-05-23T01:36:01;97330.94;;;17.47;65.96
68476;BME280;55464;48.266;14.188;2023-05-23T01:38:29;97330.53;;;17.42;66.26
68476;BME280;55464;48.266;14.188;2023-05-23T01:40:55;97341.28;;;17.43;65.90
68476;BME280;55464;48.266;14.188;2023-05-23T01:43:21;97324.19;;;17.37;66.23
68476;BME280;55464;48.266;14.188;2023-05-23T01:45:47;97329.38;;;17.43;66.25
68476;BME280;55464;48.266;14.188;2023-05-23T01:48:14;97337.28;;;17.44;66.47
68476;BME280;55464;48.266;14.188;2023-05-23T01:50:41;97336.50;;;17.44;66.70
68476;BME280;55464;48.266;14.188;2023-05-23T01:53:11;97342.09;;;17.44;66.96
68476;BME280;55464;48.266;14.188;2023-05-23T01:55:37;97336.91;;;17.42;66.38
68476;BME280;55464;48.266;14.188;2023-05-23T01:58:05;97341.28;;;17.47;66.25
68476;BME280;55464;48.266;14.188;2023-05-23T02:00:30;97346.47;;;17.45;66.42
68476;BME280;55464;48.266;14.188;2023-05-23T02:02:56;97340.91;;;17.37;66.83
68476;BME280;55464;48.266;14.188;2023-05-23T02:05:22;97332.97;;;17.32;66.66
68476;BME280;55464;48.266;14.188;2023-05-23T02:07:47;97330.19;;;17.29;67.07
68476;BME280;55464;48.266;14.188;2023-05-23T02:10:13;97328.19;;;17.29;67.08
68476;BME280;55464;48.266;14.188;2023-05-23T02:12:38;97318.66;;;17.12;67.36
68476;BME280;55464;48.266;14.188;2023-05-23T02:15:04;97338.97;;;17.13;67.80
68476;BME280;55464;48.266;14.188;2023-05-23T02:17:29;97335.75;;;17.14;67.26
68476;BME280;55464;48.266;14.188;2023-05-23T02:19:55;97329.78;;;17.12;67.07
68476;BME280;55464;48.266;14.188;2023-05-23T02:22:23;97333.41;;;17.09;66.94
68476;BME280;55464;48.266;14.188;2023-05-23T02:24:50;97334.19;;;17.06;67.36
68476;BME280;55464;48.266;14.188;2023-05-23T02:27:15;97323.06;;;16.99;67.77
68476;BME280;55464;48.266;14.188;2023-05-23T02:29:40;97332.97;;;16.86;68.24
68476;BME280;55464;48.266;14.188;2023-05-23T02:32:06;97336.56;;;16.86;68.40
68476;BME280;55464;48.266;14.188;2023-05-23T02:34:31;97339.72;;;16.88;67.53
68476;BME280;55464;48.266;14.188;2023-05-23T02:36:57;97344.50;;;16.88;67.42
68476;BME280;55464;48.266;14.188;2023-05-23T02:39:22;97351.28;;;16.97;67.37
68476;BME280;55464;48.266;14.188;2023-05-23T02:41:47;97344.94;;;17.08;66.73
68476;BME280;55464;48.266;14.188;2023-05-23T02:44:13;97349.28;;;17.12;66.62
68476;BME280;55464;48.266;14.188;2023-05-23T02:46:39;97335.34;;;17.16;66.14
68476;BME280;55464;48.266;14.188;2023-05-23T02:49:04;97340.50;;;17.25;66.31
68476;BME280;55464;48.266;14.188;2023-05-23T02:51:30;97336.94;;;17.20;66.36
68476;BME280;55464;48.266;14.188;2023-05-23T02:53:56;97347.69;;;17.26;66.61
68476;BME280;55464;48.266;14.188;2023-05-23T02:56:21;97356.03;;;17.26;66.75
68476;BME280;55464;48.266;14.188;2023-05-23T02:58:47;97348.88;;;17.25;67.23
68476;BME280;55464;48.266;14.188;2023-05-23T03:01:13;97332.19;;;17.14;67.68
68476;BME280;55464;48.266;14.188;2023-05-23T03:03:38;97346.09;;;17.21;67.35
68476;BME280;55464;48.266;14.188;2023-05-23T03:06:06;97346.47;;;17.23;66.54
68476;BME280;55464;48.266;14.188;2023-05-23T03:08:31;97346.47;;;17.23;66.96
68476;BME280;55464;48.266;14.188;2023-05-23T03:10:57;97352.06;;;17.23;66.51
68476;BME280;55464;48.266;14.188;2023-05-23T03:13:22;97349.25;;;17.23;66.24
68476;BME280;55464;48.266;14.188;2023-05-23T03:15:47;97358.84;;;17.18;66.39
68476;BME280;55464;48.266;14.188;2023-05-23T03:18:13;97343.72;;;17.16;65.79
68476;BME280;55464;48.266;14.188;2023-05-23T03:20:38;97348.09;;;17.20;65.73
68476;BME280;55464;48.266;14.188;2023-05-23T03:23:04;97343.31;;;17.17;65.53
68476;BME280;55464;48.266;14.188;2023-05-23T03:25:29;97339.34;;;17.11;65.79
68476;BME280;55464;48.266;14.188;2023-05-23T03:27:55;97339.34;;;17.11;66.04
68476;BME280;55464;48.266;14.188;2023-05-23T03:30:20;97339.34;;;17.04;66.19
68476;BME280;55464;48.266;14.188;2023-05-23T03:32:46;97342.53;;;17.06;66.01
68476;BME280;55464;48.266;14.188;2023-05-23T03:35:11;97342.53;;;17.06;65.75
68476;BME280;55464;48.266;14.188;2023-05-23T03:37:37;97347.72;;;17.00;65.78
68476;BME280;55464;48.266;14.188;2023-05-23T03:40:03;97354.06;;;16.97;66.50
68476;BME280;55464;48.266;14.188;2023-05-23T03:42:29;97351.28;;;16.90;66.97
68476;BME280;55464;48.266;14.188;2023-05-23T03:44:54;97356.47;;;16.92;66.40
68476;BME280;55464;48.266;14.188;2023-05-23T03:47:20;97350.06;;;16.91;66.17
68476;BME280;55464;48.266;14.188;2023-05-23T03:49:45;97364.00;;;16.95;66.20
68476;BME280;55464;48.266;14.188;2023-05-23T03:52:11;97355.25;;;16.96;65.70
68476;BME280;55464;48.266;14.188;2023-05-23T03:54:36;97364.81;;;16.95;66.23
68476;BME280;55464;48.266;14.188;2023-05-23T03:57:02;97366.38;;;16.96;65.87
68476;BME280;55464;48.266;14.188;2023-05-23T03:59:28;97357.63;;;17.01;66.06
68476;BME280;55464;48.266;14.188;2023-05-23T04:01:53;97351.28;;;16.90;66.03
68476;BME280;55464;48.266;14.188;2023-05-23T04:04:19;97358.84;;;17.00;66.22
68476;BME280;55464;48.266;14.188;2023-05-23T04:06:45;97351.28;;;16.97;66.24
68476;BME280;55464;48.266;14.188;2023-05-23T04:09:12;97363.22;;;16.98;66.38
68476;BME280;55464;48.266;14.188;2023-05-23T04:11:38;97355.25;;;16.96;66.66
68476;BME280;55464;48.266;14.188;2023-05-23T04:14:04;97361.59;;;16.97;66.98
68476;BME280;55464;48.266;14.188;2023-05-23T04:16:29;97360.81;;;16.96;67.50
68476;BME280;55464;48.266;14.188;2023-05-23T04:18:57;97344.13;;;16.86;66.90
68476;BME280;55464;48.266;14.188;2023-05-23T04:21:22;97366.78;;;17.02;66.69
68476;BME280;55464;48.266;14.188;2023-05-23T04:23:48;97363.19;;;17.05;66.75
68476;BME280;55464;48.266;14.188;2023-05-23T04:26:13;97352.47;;;17.00;67.24
68476;BME280;55464;48.266;14.188;2023-05-23T04:28:39;97364.03;;;17.09;67.92
68476;BME280;55464;48.266;14.188;2023-05-23T04:31:04;97362.03;;;17.10;67.69
68476;BME280;55464;48.266;14.188;2023-05-23T04:33:30;97348.88;;;17.07;68.44
68476;BME280;55464;48.266;14.188;2023-05-23T04:35:55;97358.44;;;17.16;68.23
68476;BME280;55464;48.266;14.188;2023-05-23T04:38:21;97364.41;;;17.22;67.48
68476;BME280;55464;48.266;14.188;2023-05-23T04:40:49;97367.97;;;17.23;67.57
68476;BME280;55464;48.266;14.188;2023-05-23T04:43:16;97371.53;;;17.27;67.63
68476;BME280;55464;48.266;14.188;2023-05-23T04:45:42;97370.75;;;17.23;68.03
68476;BME280;55464;48.266;14.188;2023-05-23T04:48:08;97365.97;;;17.19;68.89
68476;BME280;55464;48.266;14.188;2023-05-23T04:50:33;97373.53;;;17.15;69.49
68476;BME280;55464;48.266;14.188;2023-05-23T04:53:00;97379.13;;;17.12;69.56
68476;BME280;55464;48.266;14.188;2023-05-23T04:55:25;97375.53;;;17.11;69.70
68476;BME280;55464;48.266;14.188;2023-05-23T04:57:51;97369.59;;;17.09;69.36
68476;BME280;55464;48.266;14.188;2023-05-23T05:00:16;97367.19;;;17.11;69.00
68476;BME280;55464;48.266;14.188;2023-05-23T05:02:42;97365.59;;;17.17;69.02
68476;BME280;55464;48.266;14.188;2023-05-23T05:05:08;97354.84;;;17.16;68.46
68476;BME280;55464;48.266;14.188;2023-05-23T05:07:33;97358.44;;;17.16;69.40
68476;BME280;55464;48.266;14.188;2023-05-23T05:10:00;97369.19;;;17.22;69.29
68476;BME280;55464;48.266;14.188;2023-05-23T05:12:26;97370.38;;;17.20;69.88
68476;BME280;55464;48.266;14.188;2023-05-23T05:14:52;97364.00;;;17.16;70.02
68476;BME280;55464;48.266;14.188;2023-05-23T05:17:18;97371.97;;;17.25;70.61
68476;BME280;55464;48.266;14.188;2023-05-23T05:19:44;97373.53;;;17.26;70.34
68476;BME280;55464;48.266;14.188;2023-05-23T05:22:10;97373.13;;;17.35;69.36
68476;BME280;55464;48.266;14.188;2023-05-23T05:24:36;97370.34;;;17.35;69.29
68476;BME280;55464;48.266;14.188;2023-05-23T05:27:02;97380.28;;;17.43;69.48
68476;BME280;55464;48.266;14.188;2023-05-23T05:29:27;97383.06;;;17.47;68.91
68476;BME280;55464;48.266;14.188;2023-05-23T05:31:52;97369.16;;;17.47;69.51
68476;BME280;55464;48.266;14.188;2023-05-23T05:34:18;97372.31;;;17.49;69.21
68476;BME280;55464;48.266;14.188;2023-05-23T05:36:43;97371.53;;;17.52;69.22
68476;BME280;55464;48.266;14.188;2023-05-23T05:39:13;97382.66;;;17.55;69.51
68476;BME280;55464;48.266;14.188;2023-05-23T05:41:38;97381.44;;;17.56;70.03
68476;BME280;55464;48.266;14.188;2023-05-23T05:44:05;97392.59;;;17.56;70.41
68476;BME280;55464;48.266;14.188;2023-05-23T05:46:30;97388.63;;;17.57;70.26
68476;BME280;55464;48.266;14.188;2023-05-23T05:48:55;97394.56;;;17.63;70.97
68476;BME280;55464;48.266;14.188;2023-05-23T05:51:21;97385.44;;;17.63;70.60
68476;BME280;55464;48.266;14.188;2023-05-23T05:53:46;97383.81;;;17.65;70.38
68476;BME280;55464;48.266;14.188;2023-05-23T05:56:13;97388.19;;;17.70;70.24
68476;BME280;55464;48.266;14.188;2023-05-23T05:58:39;97386.19;;;17.70;70.14
68476;BME280;55464;48.266;14.188;2023-05-23T06:01:04;97400.13;;;17.77;70.57
68476;BME280;55464;48.266;14.188;2023-05-23T06:03:30;97404.50;;;17.82;70.18
68476;BME280;55464;48.266;14.188;2023-05-23T06:05:56;97394.94;;;17.83;70.25
68476;BME280;55464;48.266;14.188;2023-05-23T06:08:21;97404.91;;;17.88;70.05
68476;BME280;55464;48.266;14.188;2023-05-23T06:10:47;97399.72;;;17.90;69.53
68476;BME280;55464;48.266;14.188;2023-05-23T06:13:12;97384.59;;;17.76;69.45
68476;BME280;55464;48.266;14.188;2023-05-23T06:15:37;97392.97;;;17.80;69.50
68476;BME280;55464;48.266;14.188;2023-05-23T06:18:03;97395.75;;;17.80;69.74
68476;BME280;55464;48.266;14.188;2023-05-23T06:20:28;97404.50;;;17.79;69.82
68476;BME280;55464;48.266;14.188;2023-05-23T06:22:54;97393.75;;;17.81;69.36
68476;BME280;55464;48.266;14.188;2023-05-23T06:25:19;97387.00;;;17.78;69.19
68476;BME280;55464;48.266;14.188;2023-05-23T06:27:44;97405.72;;;17.88;69.34
68476;BME280;55464;48.266;14.188;2023-05-23T06:30:10;97401.31;;;17.84;69.33
68476;BME280;55464;48.266;14.188;2023-05-23T06:32:36;97413.25;;;17.91;69.41
68476;BME280;55464;48.266;14.188;2023-05-23T06:35:02;97402.91;;;17.95;69.25
68476;BME280;55464;48.266;14.188;2023-05-23T06:37:27;97397.72;;;17.94;69.11
68476;BME280;55464;48.266;14.188;2023-05-23T06:39:53;97408.84;;;18.01;68.97
68476;BME280;55464;48.266;14.188;2023-05-23T06:42:18;97400.88;;;18.03;68.92
68476;BME280;55464;48.266;14.188;2023-05-23T06:44:43;97406.06;;;18.05;68.54
68476;BME280;55464;48.266;14.188;2023-05-23T06:47:09;97412.03;;;18.07;68.79
68476;BME280;55464;48.266;14.188;2023-05-23T06:49:34;97417.19;;;18.12;69.15
68476;BME280;55464;48.266;14.188;2023-05-23T06:52:00;97421.97;;;18.15;68.82
68476;BME280;55464;48.266;14.188;2023-05-23T06:54:25;97418.75;;;18.20;68.44
68476;BME280;55464;48.266;14.188;2023-05-23T06:56:50;97408.38;;;18.24;68.54
68476;BME280;55464;48.266;14.188;2023-05-23T06:59:16;97416.69;;;18.31;67.76
68476;BME280;55464;48.266;14.188;2023-05-23T07:01:41;97417.06;;;18.37;67.48
68476;BME280;55464;48.266;14.188;2023-05-23T07:04:06;97416.22;;;18.47;67.85
68476;BME280;55464;48.266;14.188;2023-05-23T07:06:33;97409.88;;;18.43;66.83
68476;BME280;55464;48.266;14.188;2023-05-23T07:08:59;97417.44;;;18.46;67.10
68476;BME280;55464;48.266;14.188;2023-05-23T07:11:25;97419.41;;;18.49;67.12
68476;BME280;55464;48.266;14.188;2023-05-23T07:13:50;97415.84;;;18.45;67.05
68476;BME280;55464;48.266;14.188;2023-05-23T07:16:15;97420.59;;;18.56;67.71
68476;BME280;55464;48.266;14.188;2023-05-23T07:18:41;97414.19;;;18.59;66.85
68476;BME280;55464;48.266;14.188;2023-05-23T07:21:06;97426.53;;;18.58;67.47
68476;BME280;55464;48.266;14.188;2023-05-23T07:23:32;97429.75;;;18.56;67.80
68476;BME280;55464;48.266;14.188;2023-05-23T07:25:58;97415.78;;;18.56;68.39
68476;BME280;55464;48.266;14.188;2023-05-23T07:28:24;97424.56;;;18.62;72.49
68476;BME280;55464;48.266;14.188;2023-05-23T07:30:49;97426.22;;;18.45;74.38
68476;BME280;55464;48.266;14.188;2023-05-23T07:33:15;97426.31;;;18.23;75.01
68476;BME280;55464;48.266;14.188;2023-05-23T07:35:40;97415.97;;;18.20;75.02
68476;BME280;55464;48.266;14.188;2023-05-23T07:38:06;97423.19;;;18.03;75.59
68476;BME280;55464;48.266;14.188;2023-05-23T07:40:31;97407.28;;;17.93;76.89
68476;BME280;55464;48.266;14.188;2023-05-23T07:42:57;97410.47;;;17.91;76.76
68476;BME280;55464;48.266;14.188;2023-05-23T07:45:24;97412.06;;;17.85;76.88
68476;BME280;55464;48.266;14.188;2023-05-23T07:47:49;97417.66;;;17.92;76.72
68476;BME280;55464;48.266;14.188;2023-05-23T07:50:15;97412.47;;;17.91;76.96
68476;BME280;55464;48.266;14.188;2023-05-23T07:52:40;97410.06;;;17.82;77.04
68476;BME280;55464;48.266;14.188;2023-05-23T07:55:07;97410.47;;;17.77;77.44
68476;BME280;55464;48.266;14.188;2023-05-23T07:57:32;97425.22;;;17.85;77.43
68476;BME280;55464;48.266;14.188;2023-05-23T07:59:57;97414.84;;;17.85;77.13
68476;BME280;55464;48.266;14.188;2023-05-23T08:02:23;97425.22;;;17.85;77.48
68476;BME280;55464;48.266;14.188;2023-05-23T08:04:48;97419.22;;;17.83;77.46
68476;BME280;55464;48.266;14.188;2023-05-23T08:07:14;97422.44;;;17.85;77.52
68476;BME280;55464;48.266;14.188;2023-05-23T08:09:40;97426.41;;;17.87;77.89
68476;BME280;55464;48.266;14.188;2023-05-23T08:12:06;97417.66;;;17.89;78.20
68476;BME280;55464;48.266;14.188;2023-05-23T08:14:32;97416.84;;;17.95;78.47
68476;BME280;55464;48.266;14.188;2023-05-23T08:16:57;97416.81;;;18.06;78.15
68476;BME280;55464;48.266;14.188;2023-05-23T08:19:23;97416.81;;;18.06;78.22
68476;BME280;55464;48.266;14.188;2023-05-23T08:21:48;97423.16;;;18.14;78.10
68476;BME280;55464;48.266;14.188;2023-05-23T08:24:13;97414.72;;;18.25;78.68
68476;BME280;55464;48.266;14.188;2023-05-23T08:26:39;97419.09;;;18.33;80.17
68476;BME280;55464;48.266;14.188;2023-05-23T08:29:06;97410.31;;;18.38;77.60
68476;BME280;55464;48.266;14.188;2023-05-23T08:31:34;97413.06;;;18.45;78.08
68476;BME280;55464;48.266;14.188;2023-05-23T08:33:59;97420.19;;;18.57;76.76
68476;BME280;55464;48.266;14.188;2023-05-23T08:36:25;97426.53;;;18.61;77.51
68476;BME280;55464;48.266;14.188;2023-05-23T08:38:50;97422.13;;;18.67;77.90
68476;BME280;55464;48.266;14.188;2023-05-23T08:41:20;97419.72;;;18.69;77.58
68476;BME280;55464;48.266;14.188;2023-05-23T08:43:47;97423.66;;;18.72;77.19
68476;BME280;55464;48.266;14.188;2023-05-23T08:46:13;97430.75;;;18.95;77.04
68476;BME280;55464;48.266;14.188;2023-05-23T08:48:38;97435.09;;;19.03;76.68
68476;BME280;55464;48.266;14.188;2023-05-23T08:51:06;97433.47;;;19.05;76.10
68476;BME280;55464;48.266;14.188;2023-05-23T08:53:35;97427.13;;;19.01;75.54
68476;BME280;55464;48.266;14.188;2023-05-23T08:56:02;97439.81;;;19.13;75.67
68476;BME280;55464;48.266;14.188;2023-05-23T08:58:29;97432.22;;;19.14;76.25
68476;BME280;55464;48.266;14.188;2023-05-23T09:00:56;97434.16;;;19.20;76.33
68476;BME280;55464;48.266;14.188;2023-05-23T09:03:25;97432.56;;;19.19;76.31
68476;BME280;55464;48.266;14.188;2023-05-23T09:05:53;97432.91;;;19.29;76.69
68476;BME280;55464;48.266;14.188;2023-05-23T09:08:19;97432.47;;;19.30;76.44
68476;BME280;55464;48.266;14.188;2023-05-23T09:10:45;97426.44;;;19.35;76.78
68476;BME280;55464;48.266;14.188;2023-05-23T09:13:11;97428.03;;;19.40;77.56
68476;BME280;55464;48.266;14.188;2023-05-23T09:15:36;97433.13;;;19.49;76.39
68476;BME280;55464;48.266;14.188;2023-05-23T09:18:02;97428.28;;;19.53;75.94
68476;BME280;55464;48.266;14.188;2023-05-23T09:20:28;97430.53;;;19.69;75.33
68476;BME280;55464;48.266;14.188;2023-05-23T09:22:54;97429.34;;;19.70;76.67
68476;BME280;55464;48.266;14.188;2023-05-23T09:25:20;97426.47;;;19.80;76.10
68476;BME280;55464;48.266;14.188;2023-05-23T09:27:46;97414.84;;;19.86;75.16
68476;BME280;55464;48.266;14.188;2023-05-23T09:30:12;97422.31;;;19.96;72.89
68476;BME280;55464;48.266;14.188;2023-05-23T09:32:38;97410.72;;;19.97;72.09
68476;BME280;55464;48.266;14.188;2023-05-23T09:35:05;97412.56;;;20.11;71.47
68476;BME280;55464;48.266;14.188;2023-05-23T09:37:44;97415.78;;;20.10;71.80
68476;BME280;55464;48.266;14.188;2023-05-23T09:40:12;97413.69;;;20.17;71.11
68476;BME280;55464;48.266;14.188;2023-05-23T09:42:42;97409.59;;;20.26;71.02
68476;BME280;55464;48.266;14.188;2023-05-23T09:45:09;97414.72;;;20.31;71.89
68476;BME280;55464;48.266;14.188;2023-05-23T09:47:34;97411.06;;;20.37;71.92
68476;BME280;55464;48.266;14.188;2023-05-23T09:49:59;97414.59;;;20.42;69.64
68476;BME280;55464;48.266;14.188;2023-05-23T09:52:25;97414.59;;;20.42;70.96
68476;BME280;55464;48.266;14.188;2023-05-23T09:54:51;97407.97;;;20.59;68.97
68476;BME280;55464;48.266;14.188;2023-05-23T09:57:18;97394.81;;;20.56;69.89
68476;BME280;55464;48.266;14.188;2023-05-23T09:59:52;97404.69;;;20.68;69.44
68476;BME280;55464;48.266;14.188;2023-05-23T10:04:59;97398.44;;;20.84;68.49
68476;BME280;55464;48.266;14.188;2023-05-23T10:07:26;97394.88;;;20.83;67.58
68476;BME280;55464;48.266;14.188;2023-05-23T10:09:55;97378.19;;;21.00;67.93
68476;BME280;55464;48.266;14.188;2023-05-23T10:12:44;97395.38;;;21.02;69.02
68476;BME280;55464;48.266;14.188;2023-05-23T10:15:13;97379.31;;;21.06;67.96
68476;BME280;55464;48.266;14.188;2023-05-23T10:18:02;97389.59;;;21.12;68.63
68476;BME280;55464;48.266;14.188;2023-05-23T10:20:31;97385.28;;;21.31;67.46
68476;BME280;55464;48.266;14.188;2023-05-23T10:23:00;97387.31;;;21.31;66.98
68476;BME280;55464;48.266;14.188;2023-05-23T10:25:27;97391.56;;;21.39;65.01
68476;BME280;55464;48.266;14.188;2023-05-23T10:27:55;97389.97;;;21.38;63.21
68476;BME280;55464;48.266;14.188;2023-05-23T10:30:27;97391.16;;;21.41;64.91
68476;BME280;55464;48.266;14.188;2023-05-23T10:32:54;97408.69;;;21.45;64.18
68476;BME280;55464;48.266;14.188;2023-05-23T10:41:09;97384.00;;;21.36;66.34
68476;BME280;55464;48.266;14.188;2023-05-23T10:46:07;97375.84;;;21.45;65.41
68476;BME280;55464;48.266;14.188;2023-05-23T10:48:34;97369.16;;;21.39;66.29
68476;BME280;55464;48.266;14.188;2023-05-23T10:51:06;97383.09;;;21.66;66.20
68476;BME280;55464;48.266;14.188;2023-05-23T10:53:37;97378.66;;;21.69;65.52
68476;BME280;55464;48.266;14.188;2023-05-23T10:56:07;97368.78;;;21.61;65.89
68476;BME280;55464;48.266;14.188;2023-05-23T10:58:38;97367.31;;;21.52;66.56
68476;BME280;55464;48.266;14.188;2023-05-23T11:01:08;97361.66;;;21.56;65.55
68476;BME280;55464;48.266;14.188;2023-05-23T11:06:43;97366.56;;;21.72;65.44
68476;BME280;55464;48.266;14.188;2023-05-23T11:09:18;97366.75;;;21.85;64.58
68476;BME280;55464;48.266;14.188;2023-05-23T11:14:20;97379.47;;;21.89;64.96
68476;BME280;55464;48.266;14.188;2023-05-23T11:16:55;97364.22;;;21.90;64.53
68476;BME280;55464;48.266;14.188;2023-05-23T11:19:22;97362.06;;;21.98;64.12
68476;BME280;55464;48.266;14.188;2023-05-23T11:22:00;97363.94;;;22.05;64.07
68476;BME280;55464;48.266;14.188;2023-05-23T11:27:16;97361.88;;;22.29;61.55
68476;BME280;55464;48.266;14.188;2023-05-23T11:29:54;97360.19;;;22.32;61.62
68476;BME280;55464;48.266;14.188;2023-05-23T11:32:20;97348.03;;;22.38;61.41
68476;BME280;55464;48.266;14.188;2023-05-23T11:34:45;97359.47;;;22.48;61.92
68476;BME280;55464;48.266;14.188;2023-05-23T11:37:11;97342.81;;;22.57;60.78
68476;BME280;55464;48.266;14.188;2023-05-23T11:39:37;97341.34;;;22.69;59.52
68476;BME280;55464;48.266;14.188;2023-05-23T11:42:03;97329.22;;;22.55;60.13
68476;BME280;55464;48.266;14.188;2023-05-23T11:44:28;97336.88;;;22.71;60.49
68476;BME280;55464;48.266;14.188;2023-05-23T11:47:01;97325.63;;;22.71;59.97
68476;BME280;55464;48.266;14.188;2023-05-23T11:49:30;97335.22;;;22.90;58.63
68476;BME280;55464;48.266;14.188;2023-05-23T11:52:01;97324.69;;;22.94;58.03
68476;BME280;55464;48.266;14.188;2023-05-23T11:54:27;97332.31;;;22.94;59.55
68476;BME280;55464;48.266;14.188;2023-05-23T11:56:53;97318.91;;;23.18;57.00
68476;BME280;55464;48.266;14.188;2023-05-23T11:59:20;97360.19;;;23.21;58.13
68476;BME280;55464;48.266;14.188;2023-05-23T12:01:46;97324.34;;;23.25;57.15
68476;BME280;55464;48.266;14.188;2023-05-23T12:04:11;97327.41;;;23.31;59.15
68476;BME280;55464;48.266;14.188;2023-05-23T12:06:38;97327.41;;;23.31;55.55
68476;BME280;55464;48.266;14.188;2023-05-23T12:09:05;97335.50;;;23.29;55.70
68476;BME280;55464;48.266;14.188;2023-05-23T12:11:32;97334.72;;;23.28;55.36
68476;BME280;55464;48.266;14.188;2023-05-23T12:13:57;97339.66;;;23.08;57.03
68476;BME280;55464;48.266;14.188;2023-05-23T12:16:29;97365.19;;;22.97;57.37
68476;BME280;55464;48.266;14.188;2023-05-23T12:18:55;97353.28;;;22.73;58.27
68476;BME280;55464;48.266;14.188;2023-05-23T12:21:24;97355.78;;;22.51;58.37
68476;BME280;55464;48.266;14.188;2023-05-23T12:23:50;97367.47;;;22.29;59.25
68476;BME280;55464;48.266;14.188;2023-05-23T12:26:15;97374.75;;;22.26;59.95
68476;BME280;55464;48.266;14.188;2023-05-23T12:28:42;97368.53;;;22.15;60.82
68476;BME280;55464;48.266;14.188;2023-05-23T12:31:20;97358.31;;;22.05;60.07
68476;BME280;55464;48.266;14.188;2023-05-23T12:33:46;97362.50;;;21.97;60.39
68476;BME280;55464;48.266;14.188;2023-05-23T12:36:24;97368.56;;;21.95;59.60
68476;BME280;55464;48.266;14.188;2023-05-23T12:38:50;97366.75;;;21.85;59.40
68476;BME280;55464;48.266;14.188;2023-05-23T12:41:16;97389.03;;;21.92;60.41
68476;BME280;55464;48.266;14.188;2023-05-23T12:43:51;97419.16;;;22.32;61.45
68476;BME280;55464;48.266;14.188;2023-05-23T12:46:17;97402.75;;;22.50;61.15
68476;BME280;55464;48.266;14.188;2023-05-23T12:48:42;97400.09;;;22.43;61.16
68476;BME280;55464;48.266;14.188;2023-05-23T12:51:08;97407.69;;;22.22;59.14
68476;BME280;55464;48.266;14.188;2023-05-23T12:53:33;97404.25;;;22.15;59.42
68476;BME280;55464;48.266;14.188;2023-05-23T12:55:58;97387.19;;;22.05;59.17
68476;BME280;55464;48.266;14.188;2023-05-23T12:58:25;97399.19;;;22.06;58.82
68476;BME280;55464;48.266;14.188;2023-05-23T13:00:50;97407.91;;;21.92;58.33
68476;BME280;55464;48.266;14.188;2023-05-23T13:03:15;97408.41;;;21.86;58.87
68476;BME280;55464;48.266;14.188;2023-05-23T13:05:41;97415.97;;;21.66;62.04
68476;BME280;55464;48.266;14.188;2023-05-23T13:08:07;97411.88;;;21.47;66.62
68476;BME280;55464;48.266;14.188;2023-05-23T13:10:32;97442.28;;;21.25;67.65
68476;BME280;55464;48.266;14.188;2023-05-23T13:12:57;97441.59;;;20.90;69.47
68476;BME280;55464;48.266;14.188;2023-05-23T13:15:23;97441.97;;;20.57;71.67